Luke Air Force Base
KLUF : now visible

Airfield :











YOU CAN JOIN US ON...

 
LOGIN :

Register | Disclaimer

   EN    FR    IT 

 









Legend :    VFR   Marginal VFR   IFR   Intensive IFR   Very Intensive IFR
Visi :
Ceiling :
>= 8 km
>= 3000ft
5 to 8 km
1000 to 3000 ft
1500m to 5 km
500 to 1000 ft
800 to 1500m
200 to 500 ft
< 800m
< 200 ft
Symbols :   Thunderstorms  Fog  Heavy snow  Heavy precipitations  Wind > 20 kt







- Airport Elevation : 1085 ft


KLUF - Luke Air Force Base

CURRENT METAR :
  • 210408Z AUTO 20004KT 10SM OVC110 20/M01 A2979 RMK AO2 SLP081 $

EXPIRED METARs :
  • 210358Z 21004KT 10SM SCT110 20/M01 A2978 RMK AO2A SLP077 T02031015 $
  • 210348Z 21005KT 10SM SCT110 21/M02 A2978 RMK AO2A SLP077 $
  • 210258Z 00000KT 10SM CLR 21/M02 A2978 RMK AO2A SLPNO ALSTG ESTMD T02131019 $
  • 210158Z AUTO 27008KT 10SM SCT100 23/M03 M RMK AO2 SLPNO T02271029 $

TAF TAF KLUF
Valid from the 21 at 04:00 until the 22 at 10:00 UTC


210400Z 2104/2210 23009KT 9999 FEW120 QNH2978INS
BECMG 2116/2117 23012G20KT 9999 SKC QNH2960INS
TEMPO 2120/2202 23020G30KT 520009
BECMG 2205/2206 25009KT 9999 SKC QNH2966INS TX26/2121Z TN11/2113Z
KZAB FIR / North America



MET'MAP, your aeronautical weather chart ! - Copyright ORBIFLY December 2007 - Disclaimer

ORBIFLY MET'MAP TEAM :

Programming & Development : Alexandra Zaïnal
Concept & Development : Baudouin d'Aumeries
Co-Development & Prog : Marc-Olivier Méhu
Technical & hardware support : Manuel Goepfert

Contact : metmap@orbifly.com




SOURCES & CREDITS :

   NOAA       Earth
Advisory